createdAt,value
2022-11-24T00:00:36.834Z,12.49
2022-11-24T00:03:04.767Z,12.87
2022-11-24T00:05:31.422Z,13.29
2022-11-24T00:07:57.897Z,13.54
2022-11-24T00:10:24.401Z,13.53
2022-11-24T00:12:51.053Z,13.26
2022-11-24T00:15:17.573Z,13.13
2022-11-24T00:17:44.053Z,13.16
2022-11-24T00:20:10.800Z,13.28
2022-11-24T00:22:37.311Z,13.35
2022-11-24T00:25:04.087Z,13.65
2022-11-24T00:27:30.576Z,12.99
2022-11-24T00:29:59.407Z,13.27
2022-11-24T00:32:30.060Z,13.58
2022-11-24T00:34:56.546Z,13.68
2022-11-24T00:37:23.048Z,12.76
2022-11-24T00:39:49.570Z,12.79
2022-11-24T00:42:16.244Z,13.28
2022-11-24T00:44:42.733Z,13.20
2022-11-24T00:47:09.320Z,13.33
2022-11-24T00:49:36.300Z,13.26
2022-11-24T00:52:02.826Z,12.81
2022-11-24T00:54:29.343Z,13.03
2022-11-24T00:56:55.838Z,13.04
2022-11-24T00:59:22.441Z,13.20
2022-11-24T01:01:48.963Z,13.16
2022-11-24T01:04:15.498Z,12.60
2022-11-24T01:06:42.030Z,13.30
2022-11-24T01:09:11.262Z,13.14
2022-11-24T01:11:56.448Z,13.38
2022-11-24T01:14:24.343Z,13.41
2022-11-24T01:16:51.284Z,12.92
2022-11-24T01:19:18.085Z,13.07
2022-11-24T01:21:44.580Z,13.16
2022-11-24T01:24:11.770Z,13.24
2022-11-24T01:26:38.853Z,13.11
2022-11-24T01:29:05.410Z,13.39
2022-11-24T01:31:32.776Z,13.35
2022-11-24T01:33:59.421Z,13.37
2022-11-24T01:36:25.982Z,13.41
2022-11-24T01:38:52.515Z,13.34
2022-11-24T01:41:26.080Z,12.91
2022-11-24T01:43:55.148Z,12.49
2022-11-24T01:46:44.543Z,13.25
2022-11-24T01:49:21.471Z,13.20
2022-11-24T01:52:11.288Z,13.26
2022-11-24T01:54:43.990Z,13.48
2022-11-24T01:57:19.640Z,13.36
2022-11-24T01:59:49.531Z,13.54
2022-11-24T02:02:22.053Z,13.51
2022-11-24T02:04:49.034Z,13.06
2022-11-24T02:07:15.851Z,12.84
2022-11-24T02:09:54.566Z,13.24
2022-11-24T02:12:22.725Z,13.28
2022-11-24T02:14:50.477Z,13.05
2022-11-24T02:17:17.180Z,13.66
2022-11-24T02:19:57.401Z,13.64
2022-11-24T02:22:53.667Z,13.00
2022-11-24T02:25:29.484Z,13.36
2022-11-24T02:27:56.813Z,13.69
2022-11-24T02:30:23.427Z,13.58
2022-11-24T02:32:51.068Z,13.57
2022-11-24T02:35:18.509Z,13.55
2022-11-24T02:37:45.020Z,13.63
2022-11-24T02:40:15.517Z,13.66
2022-11-24T02:42:45.926Z,13.66
2022-11-24T02:45:14.961Z,13.80
2022-11-24T02:47:41.534Z,13.82
2022-11-24T02:50:08.358Z,13.41
2022-11-24T02:52:34.863Z,13.26
2022-11-24T02:55:01.357Z,13.28
2022-11-24T02:57:27.856Z,13.25
2022-11-24T02:59:54.404Z,13.33
2022-11-24T03:02:20.987Z,13.67
2022-11-24T03:04:47.489Z,13.60
2022-11-24T03:07:14.700Z,13.67
2022-11-24T03:09:41.309Z,13.38
2022-11-24T03:12:07.872Z,13.31
2022-11-24T03:14:34.513Z,13.41
2022-11-24T03:17:01.128Z,13.36
2022-11-24T03:19:27.675Z,13.66
2022-11-24T03:21:54.156Z,13.33
2022-11-24T03:24:20.774Z,13.29
2022-11-24T03:26:47.268Z,13.45
2022-11-24T03:29:13.769Z,13.16
2022-11-24T03:31:40.308Z,13.48
2022-11-24T03:34:06.885Z,13.62
2022-11-24T03:36:33.360Z,13.68
2022-11-24T03:38:59.864Z,13.33
2022-11-24T03:41:26.374Z,13.43
2022-11-24T03:43:52.877Z,13.56
2022-11-24T03:46:19.485Z,13.53
2022-11-24T03:48:46.033Z,13.67
2022-11-24T03:51:12.569Z,13.80
2022-11-24T03:53:39.164Z,13.74
2022-11-24T03:56:05.785Z,13.67
2022-11-24T03:58:32.630Z,13.77
2022-11-24T04:00:59.470Z,13.50
2022-11-24T04:03:26.165Z,13.51
2022-11-24T04:05:52.836Z,13.55
2022-11-24T04:08:19.753Z,13.46
2022-11-24T04:10:50.766Z,13.28
2022-11-24T04:13:19.198Z,13.46
2022-11-24T04:15:45.771Z,13.15
2022-11-24T04:18:13.284Z,13.40
2022-11-24T04:20:41.204Z,13.60
2022-11-24T04:23:08.995Z,13.52
2022-11-24T04:25:36.296Z,13.59
2022-11-24T04:28:03.687Z,13.50
2022-11-24T04:30:30.261Z,13.72
2022-11-24T04:32:57.238Z,13.62
2022-11-24T04:35:23.793Z,13.73
2022-11-24T04:37:50.496Z,13.77
2022-11-24T04:40:17.570Z,13.83
2022-11-24T04:42:44.100Z,13.75
2022-11-24T04:45:11.387Z,13.49
2022-11-24T04:47:38.699Z,13.77
2022-11-24T04:50:07.591Z,13.78
2022-11-24T04:52:34.225Z,13.43
2022-11-24T04:55:00.777Z,13.38
2022-11-24T04:57:27.817Z,13.59
2022-11-24T04:59:54.663Z,13.55
2022-11-24T05:02:21.819Z,13.86
2022-11-24T05:04:48.627Z,13.74
2022-11-24T05:07:18.874Z,13.79
2022-11-24T05:10:05.348Z,13.85
2022-11-24T05:12:31.972Z,13.95
2022-11-24T05:14:59.639Z,13.94
2022-11-24T05:17:35.436Z,13.71
2022-11-24T05:20:02.539Z,13.84
2022-11-24T05:22:29.595Z,13.89
2022-11-24T05:24:56.148Z,13.64
2022-11-24T05:27:22.789Z,13.12
2022-11-24T05:29:49.318Z,13.74
2022-11-24T05:32:16.208Z,13.39
2022-11-24T05:34:43.216Z,13.77
2022-11-24T05:37:09.729Z,13.48
2022-11-24T05:39:36.901Z,13.50
2022-11-24T05:42:25.406Z,13.71
2022-11-24T05:44:52.650Z,13.34
2022-11-24T05:47:19.597Z,13.57
2022-11-24T05:49:46.353Z,13.40
2022-11-24T05:52:13.121Z,13.09
2022-11-24T05:54:39.686Z,13.71
2022-11-24T05:57:06.422Z,13.85
2022-11-24T05:59:33.755Z,13.97
2022-11-24T06:02:00.713Z,13.86
2022-11-24T06:04:27.750Z,13.97
2022-11-24T06:06:54.272Z,13.90
2022-11-24T06:09:20.901Z,13.88
2022-11-24T06:11:48.281Z,13.81
2022-11-24T06:14:14.792Z,13.76
2022-11-24T06:16:41.435Z,14.05
2022-11-24T06:19:10.042Z,14.16
2022-11-24T06:21:36.569Z,14.16
2022-11-24T06:24:03.419Z,14.07
2022-11-24T06:26:29.964Z,13.87
2022-11-24T06:28:56.458Z,13.68
2022-11-24T06:31:23.060Z,14.02
2022-11-24T06:33:49.636Z,13.93
2022-11-24T06:36:16.254Z,14.01
2022-11-24T06:38:42.878Z,13.85
2022-11-24T06:41:15.166Z,13.96
2022-11-24T06:43:41.906Z,13.98
2022-11-24T06:46:08.579Z,13.89
2022-11-24T06:48:35.693Z,13.87
2022-11-24T06:51:07.210Z,14.00
2022-11-24T06:53:37.845Z,14.10
2022-11-24T06:56:10.603Z,14.05
2022-11-24T06:58:46.490Z,14.21
2022-11-24T07:01:22.323Z,14.26
2022-11-24T07:03:49.995Z,14.21
2022-11-24T07:06:18.283Z,14.37
2022-11-24T07:08:45.324Z,14.25
2022-11-24T07:11:17.942Z,14.27
2022-11-24T07:13:45.530Z,14.30
2022-11-24T07:16:13.010Z,14.00
2022-11-24T07:18:39.598Z,14.14
2022-11-24T07:21:06.697Z,14.15
2022-11-24T07:23:33.233Z,13.68
2022-11-24T07:26:06.557Z,13.98
2022-11-24T07:28:34.361Z,14.10
2022-11-24T07:31:08.690Z,14.16
2022-11-24T07:33:35.632Z,14.12
2022-11-24T07:36:03.738Z,13.91
2022-11-24T07:38:31.604Z,14.08
2022-11-24T07:41:07.341Z,14.17
2022-11-24T07:43:35.204Z,13.90
2022-11-24T07:46:02.094Z,14.03
2022-11-24T07:48:28.810Z,14.24
2022-11-24T07:50:56.401Z,14.09
2022-11-24T07:53:23.080Z,14.36
2022-11-24T07:55:54.951Z,14.22
2022-11-24T07:58:22.901Z,13.99
2022-11-24T08:00:49.686Z,14.08
2022-11-24T08:03:16.308Z,14.27
2022-11-24T08:06:01.017Z,14.26
2022-11-24T08:08:33.449Z,14.47
2022-11-24T08:11:08.536Z,14.56
2022-11-24T08:13:36.311Z,14.68
2022-11-24T08:16:08.758Z,14.90
2022-11-24T08:18:37.171Z,14.56
2022-11-24T08:21:04.915Z,14.55
2022-11-24T08:23:32.235Z,14.66
2022-11-24T08:26:04.764Z,14.26
2022-11-24T08:28:31.892Z,14.19
2022-11-24T08:31:06.824Z,14.85
2022-11-24T08:33:33.899Z,14.70
2022-11-24T08:36:09.736Z,14.74
2022-11-24T08:38:36.742Z,13.80
2022-11-24T08:41:06.388Z,14.21
2022-11-24T08:43:33.273Z,14.00
2022-11-24T08:46:06.295Z,14.24
2022-11-24T08:48:33.553Z,13.90
2022-11-24T08:51:07.335Z,14.14
2022-11-24T08:53:33.982Z,14.72
2022-11-24T08:56:00.982Z,14.34
2022-11-24T08:58:29.386Z,14.66
2022-11-24T09:00:56.404Z,14.90
2022-11-24T09:03:22.927Z,14.24
2022-11-24T09:05:52.041Z,14.59
2022-11-24T09:08:19.001Z,14.81
2022-11-24T09:10:45.569Z,15.10
2022-11-24T09:13:12.133Z,15.06
2022-11-24T09:15:38.758Z,14.95
2022-11-24T09:18:05.433Z,15.15
2022-11-24T09:20:32.052Z,15.11
2022-11-24T09:22:58.577Z,15.49
2022-11-24T09:25:25.138Z,15.80
2022-11-24T09:27:51.800Z,15.97
2022-11-24T09:30:18.409Z,16.14
2022-11-24T09:32:44.953Z,16.21
2022-11-24T09:35:11.525Z,15.75
2022-11-24T09:37:38.245Z,15.91
2022-11-24T09:40:06.033Z,15.19
2022-11-24T09:42:52.108Z,15.20
2022-11-24T09:46:05.193Z,15.56
2022-11-24T09:48:38.370Z,15.98
2022-11-24T09:51:09.411Z,15.65
2022-11-24T09:53:56.634Z,15.86
2022-11-24T09:56:33.456Z,14.86
2022-11-24T09:59:12.672Z,15.23
2022-11-24T10:01:41.975Z,14.69
2022-11-24T10:04:35.093Z,16.11
2022-11-24T10:07:07.607Z,16.25
2022-11-24T10:09:55.027Z,16.01
2022-11-24T10:12:49.777Z,15.37
2022-11-24T10:15:28.424Z,14.87
2022-11-24T10:18:28.861Z,14.84
2022-11-24T10:21:20.765Z,14.48
2022-11-24T10:24:19.345Z,13.96
2022-11-24T10:27:17.185Z,13.91
2022-11-24T10:29:44.524Z,13.99
2022-11-24T10:32:18.701Z,13.47
2022-11-24T10:34:49.859Z,12.57
2022-11-24T10:37:32.742Z,12.77
2022-11-24T10:40:58.195Z,12.56
2022-11-24T10:43:15.071Z,12.92
2022-11-24T10:45:41.863Z,12.54
2022-11-24T10:48:18.489Z,12.86
2022-11-24T10:50:45.136Z,12.55
2022-11-24T10:53:30.702Z,12.83
2022-11-24T10:55:57.161Z,12.65
2022-11-24T10:58:30.538Z,12.21
2022-11-24T11:01:13.195Z,12.65
2022-11-24T11:03:59.552Z,12.94
2022-11-24T11:06:31.566Z,13.02
2022-11-24T11:09:07.245Z,12.91
2022-11-24T11:11:41.745Z,12.46
2022-11-24T11:14:11.094Z,12.93
2022-11-24T11:16:51.072Z,12.91
2022-11-24T11:19:50.634Z,13.01
2022-11-24T11:22:37.361Z,12.83
2022-11-24T11:25:19.895Z,13.07
2022-11-24T11:27:46.740Z,13.17
2022-11-24T11:36:11.590Z,12.67
2022-11-24T11:38:39.867Z,13.08
2022-11-24T11:41:14.191Z,12.96
2022-11-24T11:43:41.297Z,13.13
2022-11-24T11:46:07.954Z,13.21
2022-11-24T11:48:43.078Z,13.12
2022-11-24T11:51:25.875Z,12.85
2022-11-24T11:54:02.552Z,12.87
2022-11-24T11:56:48.595Z,13.11
2022-11-24T11:59:31.550Z,12.84
2022-11-24T12:02:20.237Z,13.08
2022-11-24T12:05:00.644Z,12.83
2022-11-24T12:07:51.755Z,12.95
2022-11-24T12:10:50.669Z,12.77
2022-11-24T12:13:40.900Z,13.26
2022-11-24T12:16:20.584Z,13.26
2022-11-24T12:18:58.876Z,13.21
2022-11-24T12:21:35.611Z,13.40
2022-11-24T12:24:22.841Z,13.26
2022-11-24T12:27:00.998Z,13.30
2022-11-24T12:29:33.719Z,13.55
2022-11-24T12:32:38.767Z,13.45
2022-11-24T12:35:34.837Z,13.36
2022-11-24T12:38:09.176Z,13.68
2022-11-24T12:41:18.256Z,13.54
2022-11-24T12:43:52.696Z,13.60
2022-11-24T12:46:50.618Z,13.38
2022-11-24T12:49:32.468Z,13.49
2022-11-24T12:52:20.631Z,13.55
2022-11-24T12:54:47.152Z,13.10
2022-11-24T12:57:17.623Z,12.94
2022-11-24T12:59:58.830Z,13.02
2022-11-24T13:02:41.317Z,13.11
2022-11-24T13:05:31.977Z,13.48
2022-11-24T13:08:02.719Z,13.15
2022-11-24T13:10:55.751Z,13.54
2022-11-24T13:13:30.631Z,13.59
2022-11-24T13:18:59.184Z,13.85
2022-11-24T13:21:35.828Z,13.94
2022-11-24T13:26:53.809Z,13.76
2022-11-24T13:29:34.286Z,13.16
2022-11-24T13:32:00.820Z,13.54
2022-11-24T13:34:39.589Z,13.59
2022-11-24T13:37:35.547Z,13.63
2022-11-24T13:40:11.708Z,13.78
2022-11-24T13:43:10.440Z,14.04
2022-11-24T13:45:40.495Z,14.13
2022-11-24T13:48:33.771Z,14.08
2022-11-24T13:51:01.424Z,14.00
2022-11-24T13:53:40.890Z,13.89
2022-11-24T13:56:22.418Z,13.89
2022-11-24T13:58:58.203Z,13.74
2022-11-24T14:01:28.417Z,13.81
2022-11-24T14:09:47.955Z,13.67
2022-11-24T14:12:23.203Z,13.69
2022-11-24T14:14:51.653Z,13.69
2022-11-24T14:17:26.971Z,13.56
2022-11-24T14:19:58.189Z,13.59
2022-11-24T14:22:41.174Z,13.47
2022-11-24T14:25:30.962Z,13.34
2022-11-24T14:28:02.668Z,13.63
2022-11-24T14:30:29.660Z,13.73
2022-11-24T14:32:57.926Z,14.18
2022-11-24T14:35:26.450Z,15.11
2022-11-24T14:37:56.266Z,15.68
2022-11-24T14:40:38.324Z,15.06
2022-11-24T14:43:13.430Z,14.98
2022-11-24T14:45:52.665Z,15.14
2022-11-24T14:48:31.666Z,14.80
2022-11-24T14:51:08.748Z,14.82
2022-11-24T14:53:35.869Z,14.65
2022-11-24T14:56:14.048Z,14.56
2022-11-24T14:58:42.468Z,14.57
2022-11-24T15:01:22.167Z,14.53
2022-11-24T15:04:38.763Z,14.26
2022-11-24T15:07:26.113Z,14.13
2022-11-24T15:09:55.347Z,14.08
2022-11-24T15:12:42.489Z,13.93
2022-11-24T15:15:15.061Z,13.90
2022-11-24T15:17:54.741Z,13.86
2022-11-24T15:20:30.276Z,13.82
2022-11-24T15:23:23.497Z,13.86
2022-11-24T15:26:10.851Z,13.79
2022-11-24T15:28:37.666Z,13.62
2022-11-24T15:31:06.684Z,13.66
2022-11-24T15:33:33.217Z,13.58
2022-11-24T15:36:00.052Z,13.59
2022-11-24T15:38:27.040Z,13.42
2022-11-24T15:40:55.422Z,13.34
2022-11-24T15:43:28.181Z,13.28
2022-11-24T15:45:54.894Z,13.22
2022-11-24T15:48:21.929Z,13.19
2022-11-24T15:50:48.926Z,13.13
2022-11-24T15:53:21.829Z,13.03
2022-11-24T15:55:49.197Z,12.98
2022-11-24T15:58:16.167Z,12.96
2022-11-24T16:00:44.203Z,12.95
2022-11-24T16:03:44.459Z,12.86
2022-11-24T16:05:57.968Z,12.80
2022-11-24T16:08:24.673Z,12.77
2022-11-24T16:10:51.320Z,12.55
2022-11-24T16:13:17.875Z,12.47
2022-11-24T16:15:45.490Z,12.28
2022-11-24T16:18:14.708Z,12.45
2022-11-24T16:20:41.409Z,12.41
2022-11-24T16:23:07.940Z,12.41
2022-11-24T16:25:34.537Z,12.41
2022-11-24T16:28:01.030Z,12.48
2022-11-24T16:30:27.553Z,12.39
2022-11-24T16:32:54.097Z,12.33
2022-11-24T16:35:20.813Z,12.42
2022-11-24T16:37:47.995Z,12.37
2022-11-24T16:40:14.606Z,12.46
2022-11-24T16:42:41.255Z,12.48
2022-11-24T16:45:11.989Z,12.57
2022-11-24T16:47:40.998Z,12.59
2022-11-24T16:50:09.706Z,12.45
2022-11-24T16:52:36.499Z,12.51
2022-11-24T16:55:03.972Z,12.44
2022-11-24T16:57:30.486Z,12.31
2022-11-24T16:59:57.033Z,12.31
2022-11-24T17:02:23.625Z,12.19
2022-11-24T17:04:52.365Z,12.20
2022-11-24T17:07:20.298Z,12.15
2022-11-24T17:09:47.154Z,12.07
2022-11-24T17:12:13.680Z,12.07
2022-11-24T17:14:40.226Z,12.07
2022-11-24T17:17:06.714Z,12.08
2022-11-24T17:19:33.285Z,12.21
2022-11-24T17:21:59.861Z,12.18
2022-11-24T17:24:26.391Z,12.15
2022-11-24T17:26:53.217Z,12.13
2022-11-24T17:29:19.856Z,12.15
2022-11-24T17:31:46.512Z,12.12
2022-11-24T17:34:13.425Z,12.10
2022-11-24T17:36:41.425Z,11.85
2022-11-24T17:39:08.012Z,11.65
2022-11-24T17:41:35.044Z,11.43
2022-11-24T17:44:01.723Z,11.31
2022-11-24T17:46:29.748Z,11.34
2022-11-24T17:48:57.124Z,11.41
2022-11-24T17:51:25.367Z,11.42
2022-11-24T17:53:53.609Z,11.43
2022-11-24T17:56:25.498Z,11.36
2022-11-24T17:58:56.571Z,11.46
2022-11-24T18:01:23.523Z,11.43
2022-11-24T18:03:53.449Z,11.31
2022-11-24T18:06:20.890Z,11.33
2022-11-24T18:08:48.265Z,11.38
2022-11-24T18:11:24.623Z,11.39
2022-11-24T18:14:00.247Z,11.42
2022-11-24T18:16:29.752Z,11.35
2022-11-24T18:19:07.911Z,11.28
2022-11-24T18:21:35.208Z,11.25
2022-11-24T18:24:01.847Z,11.28
2022-11-24T18:26:28.633Z,11.19
2022-11-24T18:28:55.187Z,11.27
2022-11-24T18:31:22.305Z,11.25
2022-11-24T18:33:48.889Z,11.26
2022-11-24T18:36:23.574Z,11.31
2022-11-24T18:38:53.827Z,11.25
2022-11-24T18:41:21.030Z,11.22
2022-11-24T18:43:47.884Z,11.17
2022-11-24T18:46:16.710Z,11.20
2022-11-24T18:48:44.580Z,11.21
2022-11-24T18:51:15.084Z,11.37
2022-11-24T18:53:43.004Z,11.29
2022-11-24T18:56:13.435Z,11.28
2022-11-24T18:58:40.185Z,11.30
2022-11-24T19:01:12.837Z,11.24
2022-11-24T19:03:47.847Z,11.27
2022-11-24T19:06:20.127Z,11.24
2022-11-24T19:08:47.340Z,11.34
2022-11-24T19:11:18.720Z,11.27
2022-11-24T19:13:45.287Z,11.15
2022-11-24T19:16:12.289Z,11.22
2022-11-24T19:18:38.981Z,11.15
2022-11-24T19:21:05.967Z,11.11
2022-11-24T19:23:32.483Z,11.01
2022-11-24T19:26:06.299Z,11.03
2022-11-24T19:28:33.552Z,11.11
2022-11-24T19:31:11.142Z,10.95
2022-11-24T19:33:38.071Z,10.93
2022-11-24T19:36:07.957Z,10.90
2022-11-24T19:38:35.283Z,10.91
2022-11-24T19:41:07.818Z,10.84
2022-11-24T19:43:34.945Z,10.82
2022-11-24T19:46:06.460Z,10.78
2022-11-24T19:48:42.765Z,10.75
2022-11-24T19:51:12.429Z,10.72
2022-11-24T19:53:39.025Z,10.72
2022-11-24T19:56:13.199Z,10.64
2022-11-24T19:58:40.351Z,10.62
2022-11-24T20:01:15.727Z,10.63
2022-11-24T20:03:44.108Z,10.68
2022-11-24T20:06:12.515Z,10.58
2022-11-24T20:08:39.869Z,10.88
2022-11-24T20:11:09.545Z,10.88
2022-11-24T20:13:37.912Z,10.95
2022-11-24T20:16:06.580Z,10.89
2022-11-24T20:18:37.540Z,10.85
2022-11-24T20:21:16.843Z,10.86
2022-11-24T20:23:44.800Z,10.78
2022-11-24T20:26:17.137Z,10.89
2022-11-24T20:28:43.635Z,10.77
2022-11-24T20:31:14.295Z,10.77
2022-11-24T20:33:41.815Z,10.72
2022-11-24T20:36:14.508Z,10.70
2022-11-24T20:38:42.552Z,10.63
2022-11-24T20:41:12.507Z,10.69
2022-11-24T20:43:39.960Z,10.55
2022-11-24T20:46:21.820Z,10.17
2022-11-24T20:48:49.089Z,10.13
2022-11-24T20:51:22.058Z,10.05
2022-11-24T20:53:50.030Z,10.03
2022-11-24T20:56:19.422Z,10.03
2022-11-24T20:58:46.715Z,10.05
2022-11-24T21:01:20.444Z,10.02
2022-11-24T21:03:52.347Z,10.02
2022-11-24T21:06:18.884Z,10.01
2022-11-24T21:08:45.454Z,9.95
2022-11-24T21:11:13.549Z,9.88
2022-11-24T21:13:43.676Z,9.90
2022-11-24T21:16:17.874Z,9.90
2022-11-24T21:18:46.145Z,9.79
2022-11-24T21:21:14.304Z,9.78
2022-11-24T21:23:40.799Z,9.74
2022-11-24T21:26:13.164Z,9.73
2022-11-24T21:28:42.902Z,9.76
2022-11-24T21:31:15.310Z,9.73
2022-11-24T21:33:45.282Z,9.67
2022-11-24T21:36:14.421Z,9.66
2022-11-24T21:38:41.862Z,9.67
2022-11-24T21:41:09.982Z,9.61
2022-11-24T21:43:36.919Z,9.58
2022-11-24T21:46:06.213Z,9.59
2022-11-24T21:48:34.596Z,9.63
2022-11-24T21:51:02.917Z,9.56
2022-11-24T21:53:36.725Z,9.44
2022-11-24T21:56:05.540Z,9.53
2022-11-24T21:58:33.339Z,9.39
2022-11-24T22:01:04.555Z,9.45
2022-11-24T22:03:31.866Z,9.48
2022-11-24T22:06:00.057Z,9.61
2022-11-24T22:08:28.303Z,9.63
2022-11-24T22:11:01.420Z,9.58
2022-11-24T22:13:27.976Z,9.49
2022-11-24T22:16:01.436Z,9.58
2022-11-24T22:18:34.696Z,9.51
2022-11-24T22:21:04.705Z,9.51
2022-11-24T22:23:32.279Z,9.50
2022-11-24T22:26:12.693Z,9.48
2022-11-24T22:28:39.519Z,9.43
2022-11-24T22:31:12.693Z,9.44
2022-11-24T22:33:39.346Z,9.46
2022-11-24T22:36:06.518Z,9.46
2022-11-24T22:38:34.339Z,9.47
2022-11-24T22:41:09.620Z,9.27
2022-11-24T22:43:37.421Z,9.42
2022-11-24T22:46:26.019Z,9.42
2022-11-24T22:48:54.259Z,9.29
2022-11-24T22:51:23.967Z,9.32
2022-11-24T22:53:52.584Z,9.43
2022-11-24T22:56:19.875Z,9.36
2022-11-24T22:58:46.726Z,9.18
2022-11-24T23:01:18.458Z,9.31
2022-11-24T23:03:45.972Z,9.48
2022-11-24T23:06:15.521Z,9.43
2022-11-24T23:08:42.857Z,9.45
2022-11-24T23:11:15.427Z,9.36
2022-11-24T23:13:43.602Z,9.41
2022-11-24T23:16:18.327Z,9.43
2022-11-24T23:18:51.064Z,9.33
2022-11-24T23:21:22.176Z,9.69
2022-11-24T23:23:49.893Z,9.78
2022-11-24T23:26:22.565Z,9.82
2022-11-24T23:28:49.438Z,9.78
2022-11-24T23:31:18.525Z,9.76
2022-11-24T23:33:45.249Z,9.72
2022-11-24T23:36:19.884Z,9.72
2022-11-24T23:38:47.489Z,9.73
2022-11-24T23:41:16.912Z,9.73
2022-11-24T23:43:44.108Z,9.67
2022-11-24T23:46:20.375Z,9.70
2022-11-24T23:48:47.653Z,9.60
2022-11-24T23:51:16.953Z,9.59
2022-11-24T23:53:44.037Z,9.63
2022-11-24T23:56:16.302Z,9.72
2022-11-24T23:58:42.784Z,9.67
